createdAt,value
2022-11-29T00:02:24.528Z,30.77
2022-11-29T00:04:52.362Z,29.90
2022-11-29T00:07:20.265Z,28.17
2022-11-29T00:09:48.069Z,22.47
2022-11-29T00:12:16.046Z,25.77
2022-11-29T00:14:44.274Z,24.00
2022-11-29T00:17:12.401Z,21.47
2022-11-29T00:19:41.757Z,20.90
2022-11-29T00:22:09.951Z,21.37
2022-11-29T00:24:37.834Z,21.30
2022-11-29T00:27:05.714Z,20.93
2022-11-29T00:29:44.947Z,19.13
2022-11-29T00:32:13.091Z,21.07
2022-11-29T00:34:42.491Z,20.53
2022-11-29T00:37:10.594Z,21.00
2022-11-29T00:39:38.585Z,21.17
2022-11-29T00:42:06.571Z,20.60
2022-11-29T00:44:34.624Z,21.33
2022-11-29T00:47:02.414Z,21.30
2022-11-29T00:49:30.317Z,22.30
2022-11-29T00:51:59.832Z,20.87
2022-11-29T00:54:27.920Z,21.73
2022-11-29T00:56:55.747Z,18.93
2022-11-29T00:59:23.912Z,25.17
2022-11-29T01:01:51.796Z,22.77
2022-11-29T01:04:20.019Z,21.57
2022-11-29T01:06:47.956Z,24.03
2022-11-29T01:09:17.210Z,20.53
2022-11-29T01:11:45.200Z,20.10
2022-11-29T01:14:14.315Z,21.10
2022-11-29T01:16:42.467Z,19.20
2022-11-29T01:19:10.718Z,21.57
2022-11-29T01:21:38.782Z,21.00
2022-11-29T01:24:07.134Z,21.13
2022-11-29T01:26:36.374Z,21.57
2022-11-29T01:29:04.398Z,21.57
2022-11-29T01:31:35.913Z,21.83
2022-11-29T01:34:05.936Z,20.80
2022-11-29T01:36:34.510Z,20.10
2022-11-29T01:39:04.012Z,20.97
2022-11-29T01:41:34.658Z,21.60
2022-11-29T01:44:05.918Z,21.30
2022-11-29T01:46:36.080Z,23.60
2022-11-29T01:49:16.659Z,21.07
2022-11-29T01:51:49.749Z,22.00
2022-11-29T01:54:17.717Z,21.57
2022-11-29T01:56:48.968Z,21.47
2022-11-29T01:59:21.002Z,21.23
2022-11-29T02:01:49.060Z,22.10
2022-11-29T02:04:18.786Z,23.87
2022-11-29T02:06:47.137Z,22.07
2022-11-29T02:09:20.296Z,21.67
2022-11-29T02:12:10.463Z,20.67
2022-11-29T02:14:56.796Z,22.80
2022-11-29T02:17:33.859Z,22.77
2022-11-29T02:20:30.016Z,21.23
2022-11-29T02:23:05.119Z,21.90
2022-11-29T02:25:46.608Z,21.97
2022-11-29T02:28:43.062Z,23.00
2022-11-29T02:31:38.702Z,21.17
2022-11-29T02:34:25.625Z,21.87
2022-11-29T02:37:11.564Z,21.67
2022-11-29T02:40:01.732Z,20.63
2022-11-29T02:42:58.600Z,20.73
2022-11-29T02:45:46.365Z,21.43
2022-11-29T02:48:30.901Z,21.03
2022-11-29T02:51:07.954Z,21.57
2022-11-29T02:53:43.167Z,21.43
2022-11-29T02:56:18.169Z,21.80
2022-11-29T02:58:52.600Z,21.87
2022-11-29T03:01:28.438Z,22.47
2022-11-29T03:04:03.556Z,20.60
2022-11-29T03:06:40.563Z,21.73
2022-11-29T03:09:13.519Z,20.70
2022-11-29T03:11:49.564Z,21.37
2022-11-29T03:14:25.364Z,21.93
2022-11-29T03:17:08.586Z,21.70
2022-11-29T03:20:02.063Z,21.10
2022-11-29T03:22:44.075Z,22.30
2022-11-29T03:25:20.582Z,22.43
2022-11-29T03:27:53.979Z,21.77
2022-11-29T03:30:22.792Z,22.87
2022-11-29T03:33:02.272Z,22.87
2022-11-29T03:35:38.846Z,21.03
2022-11-29T03:38:21.654Z,21.70
2022-11-29T03:40:57.014Z,21.90
2022-11-29T03:43:31.803Z,23.10
2022-11-29T03:46:04.702Z,22.67
2022-11-29T03:48:37.679Z,24.43
2022-11-29T03:51:12.295Z,24.53
2022-11-29T03:53:49.864Z,23.07
2022-11-29T03:56:29.034Z,23.93
2022-11-29T03:59:11.477Z,24.63
2022-11-29T04:02:01.484Z,23.93
2022-11-29T04:05:03.082Z,21.97
2022-11-29T04:08:01.421Z,23.27
2022-11-29T04:10:58.307Z,22.57
2022-11-29T04:13:48.800Z,21.20
2022-11-29T04:16:41.189Z,22.77
2022-11-29T04:19:42.425Z,23.07
2022-11-29T04:22:29.202Z,23.23
2022-11-29T04:25:34.722Z,24.83
2022-11-29T04:28:28.909Z,22.40
2022-11-29T04:31:04.065Z,23.00
2022-11-29T04:34:03.316Z,24.00
2022-11-29T04:36:59.680Z,23.87
2022-11-29T04:40:09.266Z,24.47
2022-11-29T04:42:56.095Z,24.60
2022-11-29T04:46:03.575Z,24.00
2022-11-29T04:48:52.252Z,22.73
2022-11-29T04:51:30.675Z,24.53
2022-11-29T04:54:07.726Z,23.90
2022-11-29T04:56:43.980Z,23.60
2022-11-29T04:59:17.722Z,23.33
2022-11-29T05:01:59.736Z,23.40
2022-11-29T05:04:38.137Z,23.23
2022-11-29T05:07:13.682Z,23.77
2022-11-29T05:09:58.859Z,23.43
2022-11-29T05:12:34.293Z,24.80
2022-11-29T05:15:33.751Z,22.47
2022-11-29T05:18:15.011Z,22.50
2022-11-29T05:20:52.845Z,22.70
2022-11-29T05:23:34.658Z,23.37
2022-11-29T05:26:10.263Z,23.57
2022-11-29T05:28:51.333Z,24.43
2022-11-29T05:31:32.267Z,23.80
2022-11-29T05:34:19.636Z,23.53
2022-11-29T05:36:56.413Z,22.60
2022-11-29T05:39:37.588Z,24.57
2022-11-29T05:42:31.115Z,24.23
2022-11-29T05:45:05.445Z,21.17
2022-11-29T05:47:41.307Z,22.50
2022-11-29T05:50:17.252Z,21.77
2022-11-29T05:52:51.920Z,21.63
2022-11-29T05:55:30.505Z,24.63
2022-11-29T05:58:02.492Z,22.93
2022-11-29T06:00:39.507Z,23.90
2022-11-29T06:03:16.999Z,23.80
2022-11-29T06:05:53.936Z,23.77
2022-11-29T06:08:30.885Z,24.03
2022-11-29T06:11:05.866Z,21.90
2022-11-29T06:13:43.853Z,23.47
2022-11-29T06:16:51.040Z,22.27
2022-11-29T06:19:52.973Z,21.70
2022-11-29T06:22:48.963Z,21.70
2022-11-29T06:25:31.712Z,22.37
2022-11-29T06:28:14.997Z,24.27
2022-11-29T06:30:56.552Z,21.67
2022-11-29T06:33:28.845Z,22.00
2022-11-29T06:36:12.955Z,21.07
2022-11-29T06:38:43.065Z,22.73
2022-11-29T06:41:17.321Z,23.73
2022-11-29T06:43:46.155Z,22.83
2022-11-29T06:46:24.122Z,22.97
2022-11-29T06:49:01.930Z,25.50
2022-11-29T06:51:36.090Z,23.90
2022-11-29T06:54:20.622Z,22.27
2022-11-29T06:56:57.900Z,21.30
2022-11-29T06:59:41.531Z,23.27
2022-11-29T07:02:27.977Z,22.83
2022-11-29T07:05:09.192Z,24.50
2022-11-29T07:07:37.823Z,22.23
2022-11-29T07:10:13.486Z,24.37
2022-11-29T07:12:43.206Z,22.63
2022-11-29T07:15:16.331Z,22.77
2022-11-29T07:18:06.163Z,22.37
2022-11-29T07:20:40.668Z,21.40
2022-11-29T07:23:18.523Z,22.30
2022-11-29T07:25:59.957Z,22.43
2022-11-29T07:28:39.062Z,23.03
2022-11-29T07:31:13.223Z,21.50
2022-11-29T07:33:50.923Z,21.77
2022-11-29T07:36:27.327Z,19.20
2022-11-29T07:39:04.512Z,22.50
2022-11-29T07:41:42.144Z,21.40
2022-11-29T07:44:21.620Z,22.07
2022-11-29T07:46:49.401Z,21.17
2022-11-29T07:49:17.567Z,22.87
2022-11-29T07:51:45.623Z,22.30
2022-11-29T07:54:20.353Z,20.70
2022-11-29T07:56:49.453Z,19.57
2022-11-29T07:59:17.209Z,21.37
2022-11-29T08:01:45.057Z,21.67
2022-11-29T08:04:13.925Z,23.10
2022-11-29T08:06:41.694Z,22.00
2022-11-29T08:09:09.509Z,20.87
2022-11-29T08:11:37.464Z,21.10
2022-11-29T08:14:06.775Z,20.60
2022-11-29T08:16:34.653Z,20.70
2022-11-29T08:19:02.930Z,21.03
2022-11-29T08:21:30.617Z,20.83
2022-11-29T08:23:58.519Z,21.23
2022-11-29T08:26:31.435Z,20.07
2022-11-29T08:28:59.824Z,21.47
2022-11-29T08:31:28.909Z,20.87
2022-11-29T08:33:56.714Z,20.40
2022-11-29T08:36:24.419Z,22.07
2022-11-29T08:38:59.246Z,20.77
2022-11-29T08:41:31.372Z,20.43
2022-11-29T08:43:59.306Z,19.03
2022-11-29T08:46:48.575Z,20.13
2022-11-29T14:36:50.750Z,24.37
2022-11-29T14:39:35.375Z,23.93
2022-11-29T14:42:17.098Z,22.10
2022-11-29T14:44:47.351Z,23.43
2022-11-29T14:47:24.054Z,22.73
2022-11-29T14:49:54.131Z,20.40
2022-11-29T14:52:32.947Z,24.90
2022-11-29T14:55:04.526Z,20.73
2022-11-29T14:58:15.173Z,21.07
2022-11-29T15:01:09.891Z,22.43
2022-11-29T15:03:49.640Z,22.47
2022-11-29T15:06:28.467Z,23.03
2022-11-29T15:09:03.783Z,23.73
2022-11-29T15:11:41.287Z,21.93
2022-11-29T15:14:17.081Z,23.67
2022-11-29T15:17:05.773Z,20.90
2022-11-29T15:20:11.653Z,23.50
2022-11-29T15:22:49.162Z,22.90
2022-11-29T15:25:21.617Z,22.53
2022-11-29T15:27:54.532Z,23.57
2022-11-29T15:30:30.038Z,24.53
2022-11-29T15:32:58.981Z,23.70
2022-11-29T15:35:49.630Z,24.67
2022-11-29T15:38:19.413Z,22.57
2022-11-29T15:40:53.581Z,23.33
2022-11-29T15:43:26.138Z,23.60
2022-11-29T15:45:55.771Z,23.63
2022-11-29T15:48:25.643Z,22.43
2022-11-29T15:51:00.806Z,23.23
2022-11-29T15:53:34.427Z,24.13
2022-11-29T15:56:06.401Z,22.43
2022-11-29T15:58:35.203Z,21.93
2022-11-29T16:01:04.588Z,23.47
2022-11-29T16:03:36.631Z,23.90
2022-11-29T16:06:17.275Z,27.07
2022-11-29T16:08:45.504Z,23.80
2022-11-29T16:11:21.290Z,23.83
2022-11-29T16:14:22.953Z,24.90
2022-11-29T16:16:53.491Z,24.50
2022-11-29T16:19:27.590Z,26.00
2022-11-29T16:22:05.210Z,22.53
2022-11-29T16:24:34.923Z,25.47
2022-11-29T16:27:05.730Z,25.83
2022-11-29T16:29:39.174Z,24.50
2022-11-29T16:32:15.980Z,24.50
2022-11-29T16:34:45.718Z,23.53
2022-11-29T16:37:20.529Z,23.63
2022-11-29T16:39:51.636Z,25.43
2022-11-29T16:42:25.916Z,25.13
2022-11-29T16:45:24.533Z,29.13
2022-11-29T16:47:58.077Z,26.57
2022-11-29T16:50:27.191Z,25.40
2022-11-29T16:52:57.062Z,26.17
2022-11-29T16:55:25.636Z,24.70
2022-11-29T16:57:54.958Z,27.10
2022-11-29T17:00:26.614Z,25.13
2022-11-29T17:02:54.551Z,25.30
2022-11-29T17:05:22.406Z,27.20
2022-11-29T17:07:51.435Z,26.53
2022-11-29T17:10:22.017Z,26.20
2022-11-29T17:12:50.140Z,26.70
2022-11-29T17:15:19.991Z,25.80
2022-11-29T17:17:47.861Z,25.53
2022-11-29T17:20:16.049Z,27.27
2022-11-29T17:22:45.763Z,24.73
2022-11-29T17:25:13.582Z,25.87
2022-11-29T17:27:43.838Z,26.30
2022-11-29T17:30:12.646Z,24.97
2022-11-29T17:32:48.094Z,27.20
2022-11-29T17:35:16.479Z,26.80
2022-11-29T17:37:44.636Z,25.37
2022-11-29T17:40:15.296Z,23.97
2022-11-29T17:42:43.081Z,25.30
2022-11-29T17:45:12.187Z,24.50
2022-11-29T17:47:41.505Z,23.77
2022-11-29T17:50:09.835Z,25.63
2022-11-29T17:52:39.169Z,25.07
2022-11-29T17:55:08.361Z,24.83
2022-11-29T17:57:36.362Z,23.67
2022-11-29T18:00:06.326Z,23.50
2022-11-29T18:02:34.542Z,22.53
2022-11-29T18:05:03.812Z,24.57
2022-11-29T18:07:31.774Z,23.03
2022-11-29T18:09:59.673Z,23.80
2022-11-29T18:12:27.766Z,25.93
2022-11-29T18:17:51.030Z,23.57
2022-11-29T18:20:20.394Z,25.53
2022-11-29T18:22:48.266Z,24.37
2022-11-29T18:25:38.196Z,23.97
2022-11-29T18:28:04.012Z,24.70
2022-11-29T18:30:31.822Z,24.90
2022-11-29T18:32:59.827Z,23.80
2022-11-29T18:35:34.666Z,25.00
2022-11-29T18:40:49.074Z,24.37
2022-11-29T18:43:25.916Z,24.80
2022-11-29T18:45:54.787Z,26.07
2022-11-29T18:51:51.908Z,24.83
2022-11-29T18:54:21.322Z,24.90
2022-11-29T18:56:54.126Z,26.67
2022-11-29T18:59:23.008Z,22.90
2022-11-29T19:01:57.195Z,24.47
2022-11-29T19:04:43.842Z,26.50
2022-11-29T19:07:16.768Z,26.50
2022-11-29T19:09:45.377Z,25.10
2022-11-29T19:12:13.308Z,24.67
2022-11-29T19:14:46.515Z,23.20
2022-11-29T19:17:17.593Z,25.77
2022-11-29T19:19:45.744Z,26.00
2022-11-29T19:22:15.478Z,26.10
2022-11-29T19:24:43.654Z,26.97
2022-11-29T19:27:11.751Z,27.33
2022-11-29T19:29:40.008Z,26.43
2022-11-29T19:32:08.574Z,44.83
2022-11-29T19:34:36.551Z,25.63
2022-11-29T19:37:04.512Z,26.97
2022-11-29T19:39:33.969Z,26.97
2022-11-29T19:42:01.837Z,26.80
2022-11-29T19:44:30.214Z,25.97
2022-11-29T19:46:59.276Z,26.10
2022-11-29T19:49:27.044Z,26.70
2022-11-29T19:51:55.104Z,26.07
2022-11-29T19:54:22.850Z,27.13
2022-11-29T19:56:52.132Z,25.53
2022-11-29T19:59:19.973Z,25.37
2022-11-29T20:01:47.883Z,27.20
2022-11-29T20:04:16.874Z,26.73
2022-11-29T20:06:45.411Z,27.00
2022-11-29T20:09:14.633Z,27.43
2022-11-29T20:11:42.397Z,26.23
2022-11-29T20:14:14.794Z,28.60
2022-11-29T20:16:43.524Z,25.13
2022-11-29T20:19:13.043Z,29.20
2022-11-29T20:21:44.025Z,28.37
2022-11-29T20:24:12.940Z,28.30
2022-11-29T20:26:42.234Z,26.60
2022-11-29T20:29:13.116Z,27.93
2022-11-29T20:31:49.033Z,26.70
2022-11-29T20:34:18.368Z,28.43
2022-11-29T20:37:02.162Z,28.87
2022-11-29T20:39:39.102Z,28.00
2022-11-29T20:42:24.857Z,26.40
2022-11-29T20:44:56.364Z,27.57
2022-11-29T20:47:26.380Z,27.77
2022-11-29T20:49:54.907Z,25.63
2022-11-29T20:52:35.528Z,29.03
2022-11-29T20:55:03.556Z,26.53
2022-11-29T20:57:31.478Z,26.73
2022-11-29T21:00:00.668Z,27.47
2022-11-29T21:02:31.387Z,25.57
2022-11-29T21:04:59.380Z,29.07
2022-11-29T21:07:27.149Z,27.23
2022-11-29T21:12:45.782Z,29.00
2022-11-29T21:15:16.819Z,28.50
2022-11-29T21:17:45.910Z,29.33
2022-11-29T21:20:20.065Z,27.57
2022-11-29T21:22:55.740Z,28.33
2022-11-29T21:25:36.559Z,29.40
2022-11-29T21:28:15.014Z,28.40
2022-11-29T21:30:45.251Z,26.37
2022-11-29T21:33:14.939Z,27.73
2022-11-29T21:35:46.449Z,29.30
2022-11-29T21:41:47.258Z,25.97
2022-11-29T21:44:17.469Z,28.67
2022-11-29T21:46:46.701Z,26.03
2022-11-29T21:49:14.762Z,28.53
2022-11-29T21:51:42.785Z,27.40
2022-11-29T21:54:10.566Z,29.80
2022-11-29T21:56:38.505Z,30.17
2022-11-29T21:59:06.336Z,27.80
2022-11-29T22:01:34.695Z,29.30
2022-11-29T22:04:04.440Z,30.17
2022-11-29T22:06:32.273Z,27.90
2022-11-29T22:09:00.576Z,27.73
2022-11-29T22:11:35.485Z,28.40
2022-11-29T22:14:17.927Z,27.67
2022-11-29T22:16:48.489Z,29.17
2022-11-29T22:19:19.372Z,30.03
2022-11-29T22:21:48.979Z,29.50
2022-11-29T22:24:27.154Z,27.87
2022-11-29T22:26:55.918Z,29.40
2022-11-29T22:29:24.780Z,30.60
2022-11-29T22:31:54.369Z,28.47
2022-11-29T22:34:25.120Z,29.97
2022-11-29T22:36:53.016Z,30.47
2022-11-29T22:39:20.916Z,30.13
2022-11-29T22:41:53.944Z,27.57
2022-11-29T22:44:22.889Z,29.17
2022-11-29T22:46:51.188Z,29.40
2022-11-29T22:49:19.025Z,29.20
2022-11-29T22:51:48.341Z,29.73
2022-11-29T22:54:17.321Z,28.23
2022-11-29T22:56:46.429Z,30.00
2022-11-29T22:59:16.981Z,28.90
2022-11-29T23:01:45.090Z,27.83
2022-11-29T23:04:13.804Z,30.97
2022-11-29T23:06:43.980Z,30.00
2022-11-29T23:09:16.297Z,30.43
2022-11-29T23:11:45.186Z,30.27
2022-11-29T23:14:13.515Z,29.70
2022-11-29T23:16:41.400Z,28.60
2022-11-29T23:19:10.180Z,34.30
2022-11-29T23:21:43.015Z,30.07
2022-11-29T23:24:11.185Z,30.37
2022-11-29T23:26:48.251Z,30.33
2022-11-29T23:29:18.315Z,29.93
2022-11-29T23:31:46.754Z,30.27
2022-11-29T23:34:32.177Z,31.37
2022-11-29T23:36:59.949Z,30.53
2022-11-29T23:39:27.867Z,28.70
2022-11-29T23:41:57.230Z,31.13
2022-11-29T23:44:36.760Z,32.27
2022-11-29T23:47:05.728Z,31.47
2022-11-29T23:50:26.877Z,30.90
2022-11-29T23:52:58.036Z,29.97
2022-11-29T23:55:27.945Z,30.57
2022-11-29T23:57:57.670Z,30.47
